Time;durP1;ratioP1;P1;durP2;ratioP2;P2;SDS_P1;SDS_P2;PMS_P1;PMS_P2;Temp;Humidity;BMP_temperature;BMP_pressure;BME280_temperature;BME280_humidity;BME280_pressure;Samples;Min_cycle;Max_cycle;Signal;HPM_P1;HPM_P2
2023/01/26 00:03:59;;;;;;;19.4;12.5;;;;;;;0.8;81.6;99490;;;;
2023/01/26 00:14:59;;;;;;;16.8;9;;;;;;;0.8;81.2;99480;;;;
2023/01/26 00:24:59;;;;;;;16.8;9;;;;;;;0.8;81;99470;;;;
2023/01/26 00:36:01;;;;;;;16.8;9;;;;;;;0.8;80.8;99460;;;;
2023/01/26 00:46:59;;;;;;;17;9.3;;;;;;;0.8;80.8;99450;;;;
2023/01/26 00:56:59;;;;;;;17;9.3;;;;;;;0.8;80.3;99440;;;;
2023/01/26 01:06:59;;;;;;;17;9.3;;;;;;;0.5;80.2;99430;;;;
2023/01/26 01:16:59;;;;;;;13.2;8.1;;;;;;;0.5;79.8;99420;;;;
2023/01/26 01:26:59;;;;;;;13.2;8.1;;;;;;;0.4;79.5;99420;;;;
2023/01/26 01:37:59;;;;;;;13.2;8.1;;;;;;;0.3;80.3;99410;;;;
2023/01/26 01:47:59;;;;;;;14.6;8.2;;;;;;;0.4;79.5;99400;;;;
2023/01/26 01:58:59;;;;;;;14.6;8.2;;;;;;;0.3;79.5;99410;;;;
2023/01/26 02:08:59;;;;;;;14.6;8.2;;;;;;;0.5;79.5;99400;;;;
2023/01/26 02:19:59;;;;;;;13.1;7.7;;;;;;;0.6;79;99390;;;;
2023/01/26 02:30:59;;;;;;;13.1;7.7;;;;;;;0.7;78.8;99380;;;;
2023/01/26 02:42:43;;;;;;;13.7;7.5;;;;;;;0.7;78.8;99370;;;;
2023/01/26 02:51:59;;;;;;;13.7;7.5;;;;;;;0.8;78.7;99360;;;;
2023/01/26 03:02:59;;;;;;;13.7;7.5;;;;;;;0.8;78.6;99360;;;;
2023/01/26 03:12:59;;;;;;;14.4;7.3;;;;;;;0.8;78.8;99350;;;;
2023/01/26 03:33:59;;;;;;;14.4;7.3;;;;;;;0.6;79;99340;;;;
2023/01/26 04:27:59;;;;;;;16.1;8.2;;;;;;;0.4;79.4;99310;;;;
2023/01/26 04:37:59;;;;;;;16.1;8.2;;;;;;;0.5;79;99290;;;;
2023/01/26 04:48:59;;;;;;;12.5;7.6;;;;;;;0.4;78.9;99280;;;;
2023/01/26 04:59:59;;;;;;;12.5;7.6;;;;;;;0.6;79;99270;;;;
2023/01/26 05:09:59;;;;;;;12.5;7.6;;;;;;;0.6;79;99270;;;;
2023/01/26 05:19:59;;;;;;;16.2;7.9;;;;;;;0.5;79.3;99270;;;;
2023/01/26 05:30:59;;;;;;;16.2;7.9;;;;;;;0.6;79.4;99270;;;;
2023/01/26 05:41:59;;;;;;;18.4;9.2;;;;;;;0.7;79.5;99270;;;;
2023/01/26 05:51:59;;;;;;;18.4;9.2;;;;;;;0.5;79.6;99270;;;;
2023/01/26 06:02:59;;;;;;;18.4;9.2;;;;;;;0.6;79.7;99260;;;;
2023/01/26 06:13:59;;;;;;;14.5;8.9;;;;;;;0.6;79.1;99260;;;;
2023/01/26 06:24:59;;;;;;;14.5;8.9;;;;;;;0.5;79;99260;;;;
2023/01/26 06:35:59;;;;;;;14.5;8.9;;;;;;;0.5;79.1;99260;;;;
2023/01/26 06:45:59;;;;;;;16.6;9.8;;;;;;;0.6;79.3;99260;;;;
2023/01/26 06:56:59;;;;;;;16.6;9.8;;;;;;;0.7;79;99260;;;;
2023/01/26 07:06:59;;;;;;;16.6;9.8;;;;;;;0.7;79.1;99250;;;;
2023/01/26 07:17:59;;;;;;;18;8.8;;;;;;;0.7;79.2;99250;;;;
2023/01/26 07:27:59;;;;;;;18;8.8;;;;;;;0.7;79.3;99240;;;;
2023/01/26 07:37:59;;;;;;;18;8.8;;;;;;;0.6;79.1;99240;;;;
2023/01/26 07:48:59;;;;;;;20.2;10.5;;;;;;;0.6;78.9;99230;;;;
2023/01/26 07:59:59;;;;;;;20.2;10.5;;;;;;;0.6;78.5;99220;;;;
2023/01/26 08:09:59;;;;;;;17.5;9.4;;;;;;;0.9;78.7;99220;;;;
2023/01/26 08:20:59;;;;;;;17.5;9.4;;;;;;;1;78.1;99240;;;;
2023/01/26 08:30:59;;;;;;;17.5;9.4;;;;;;;1.1;77.5;99230;;;;
2023/01/26 08:40:59;;;;;;;18.2;10.2;;;;;;;1.1;77.3;99230;;;;
2023/01/26 08:50:59;;;;;;;18.2;10.2;;;;;;;1.3;77.4;99230;;;;
2023/01/26 09:00:59;;;;;;;18.2;10.2;;;;;;;1.1;77.7;99230;;;;
2023/01/26 09:11:59;;;;;;;22.9;12.3;;;;;;;1.1;77.7;99240;;;;
2023/01/26 09:22:59;;;;;;;22.9;12.3;;;;;;;1.1;77.8;99240;;;;
2023/01/26 09:32:59;;;;;;;22.9;12.3;;;;;;;1.2;77.8;99230;;;;
2023/01/26 09:43:59;;;;;;;18.9;11.3;;;;;;;1.3;77.3;99220;;;;
2023/01/26 09:54:59;;;;;;;18.9;11.3;;;;;;;1.4;77.3;99210;;;;
2023/01/26 10:05:59;;;;;;;18.9;11.3;;;;;;;1.5;77.7;99190;;;;
2023/01/26 10:16:59;;;;;;;21.7;12.8;;;;;;;1.6;76.8;99180;;;;
2023/01/26 10:27:59;;;;;;;21.7;12.8;;;;;;;1.7;76.5;99170;;;;
2023/01/26 10:38:59;;;;;;;21.7;12.8;;;;;;;1.6;76.4;99160;;;;
2023/01/26 10:48:59;;;;;;;21.9;12.4;;;;;;;1.7;75.8;99160;;;;
2023/01/26 10:59:59;;;;;;;21.9;12.4;;;;;;;2.2;76.3;99150;;;;
2023/01/26 11:10:59;;;;;;;21.8;13;;;;;;;2.3;75.3;99140;;;;
2023/01/26 11:20:59;;;;;;;21.8;13;;;;;;;2.2;74.8;99130;;;;
2023/01/26 11:30:59;;;;;;;21.8;13;;;;;;;2.3;74.7;99130;;;;
2023/01/26 11:40:59;;;;;;;19.2;13.5;;;;;;;2.3;74.6;99110;;;;
2023/01/26 11:51:59;;;;;;;19.2;13.5;;;;;;;2.4;74;99100;;;;
2023/01/26 12:01:59;;;;;;;19.2;13.5;;;;;;;2.4;73.7;99080;;;;
2023/01/26 12:12:59;;;;;;;24.5;15.2;;;;;;;1.9;74.2;99070;;;;
2023/01/26 12:24:00;;;;;;;24.5;15.2;;;;;;;2.1;74.6;99060;;;;
2023/01/26 12:33:59;;;;;;;24.5;15.2;;;;;;;1.9;74.4;99060;;;;
2023/01/26 12:43:59;;;;;;;22;13.7;;;;;;;2.1;75;99040;;;;
2023/01/26 12:54:59;;;;;;;22;13.7;;;;;;;2.1;74.1;99030;;;;
2023/01/26 13:04:59;;;;;;;22;13.7;;;;;;;1.9;75.1;99020;;;;
2023/01/26 13:14:59;;;;;;;25.1;14.9;;;;;;;1.8;75.2;99010;;;;
2023/01/26 13:25:59;;;;;;;25.1;14.9;;;;;;;2;74.9;99010;;;;
2023/01/26 13:35:59;;;;;;;25.1;14.9;;;;;;;2;74.9;99010;;;;
2023/01/26 13:46:59;;;;;;;26.4;17.2;;;;;;;2.1;75.2;99020;;;;
2023/01/26 13:56:59;;;;;;;26.4;17.2;;;;;;;2;75.3;99020;;;;
2023/01/26 14:06:59;;;;;;;26.4;17.2;;;;;;;1.8;75.4;99020;;;;
2023/01/26 14:17:59;;;;;;;22.2;14.2;;;;;;;1.9;75.6;99020;;;;
2023/01/26 14:27:59;;;;;;;22.2;14.2;;;;;;;1.7;75.2;99020;;;;
2023/01/26 14:37:59;;;;;;;22.2;14.2;;;;;;;1.5;75.9;99020;;;;
2023/01/26 14:47:59;;;;;;;22.6;13.3;;;;;;;1.4;76.1;99020;;;;
2023/01/26 14:58:59;;;;;;;22.6;13.3;;;;;;;1.2;77;99010;;;;
2023/01/26 15:08:59;;;;;;;22.8;13.6;;;;;;;1.2;77.4;99010;;;;
2023/01/26 15:19:00;;;;;;;22.8;13.6;;;;;;;1;77.9;99010;;;;
2023/01/26 15:29:00;;;;;;;22.8;13.6;;;;;;;0.9;78.6;99010;;;;
2023/01/26 15:39:59;;;;;;;27.2;15.6;;;;;;;0.7;79.5;99010;;;;
2023/01/26 15:49:59;;;;;;;27.2;15.6;;;;;;;0.7;79.4;99010;;;;
2023/01/26 15:59:59;;;;;;;27.2;15.6;;;;;;;0.6;79.6;99010;;;;
2023/01/26 16:09:59;;;;;;;31.6;19;;;;;;;0.4;80.1;99010;;;;
2023/01/26 16:21:00;;;;;;;31.6;19;;;;;;;0.5;80.3;99000;;;;
2023/01/26 16:31:00;;;;;;;31.6;19;;;;;;;0.5;80.6;99000;;;;
2023/01/26 16:41:59;;;;;;;27.1;15.8;;;;;;;0.4;81;99000;;;;
2023/01/26 16:51:59;;;;;;;27.1;15.8;;;;;;;0.3;81.4;98990;;;;
2023/01/26 17:02:59;;;;;;;27.1;15.8;;;;;;;0.4;81.4;98990;;;;
2023/01/26 17:13:59;;;;;;;27.4;17.6;;;;;;;0.4;81.6;98980;;;;
2023/01/26 17:24:59;;;;;;;27.4;17.6;;;;;;;0.4;81.7;98980;;;;
2023/01/26 17:34:59;;;;;;;27.4;17.6;;;;;;;0.2;82.3;98970;;;;
2023/01/26 17:46:00;;;;;;;27.5;15.9;;;;;;;0.2;82.2;98990;;;;
2023/01/26 17:57:00;;;;;;;27.5;15.9;;;;;;;0.3;82;98990;;;;
2023/01/26 18:07:59;;;;;;;27.5;15.9;;;;;;;0.3;82;98990;;;;
2023/01/26 18:19:01;;;;;;;34.3;19.1;;;;;;;0.3;82.2;98990;;;;
2023/01/26 18:29:59;;;;;;;34.3;19.1;;;;;;;0.3;82.3;99000;;;;
2023/01/26 18:40:59;;;;;;;30.2;14.6;;;;;;;0.2;82.5;99000;;;;
2023/01/26 18:51:00;;;;;;;30.2;14.6;;;;;;;0.3;82.5;99020;;;;
2023/01/26 19:02:00;;;;;;;30.2;14.6;;;;;;;0.3;82.5;99020;;;;
2023/01/26 19:12:00;;;;;;;39.9;22;;;;;;;0.3;82.9;99020;;;;
2023/01/26 19:23:02;;;;;;;39.9;22;;;;;;;0.1;83.5;99010;;;;
2023/01/26 19:34:00;;;;;;;39.9;22;;;;;;;0.3;83.4;98990;;;;
2023/01/26 19:44:59;;;;;;;40.8;20.7;;;;;;;0.1;83.8;98980;;;;
2023/01/26 19:55:00;;;;;;;40.8;20.7;;;;;;;0;84.2;98980;;;;
2023/01/26 20:06:00;;;;;;;40.8;20.7;;;;;;;0.1;84.2;98970;;;;
2023/01/26 20:17:00;;;;;;;32.9;18.8;;;;;;;0;84.5;98970;;;;
2023/01/26 20:27:59;;;;;;;32.9;18.8;;;;;;;0;84.5;98970;;;;
2023/01/26 20:37:59;;;;;;;30;18.3;;;;;;;0;84.5;98970;;;;
2023/01/26 20:48:00;;;;;;;30;18.3;;;;;;;-0.2;85.4;98960;;;;
2023/01/26 20:57:59;;;;;;;30;18.3;;;;;;;0;84.8;98970;;;;
2023/01/26 21:09:00;;;;;;;29.7;16.5;;;;;;;0;84.7;98960;;;;
2023/01/26 21:20:00;;;;;;;29.7;16.5;;;;;;;0;84.5;98960;;;;
2023/01/26 21:31:00;;;;;;;29.7;16.5;;;;;;;0.1;84.6;98960;;;;
2023/01/26 21:41:00;;;;;;;31;17.1;;;;;;;0.2;84.6;98960;;;;
2023/01/26 21:53:04;;;;;;;31;17.1;;;;;;;0.1;84.4;98950;;;;
2023/01/26 22:03:00;;;;;;;31;17.1;;;;;;;-0.1;84.8;98940;;;;
2023/01/26 22:14:00;;;;;;;28.7;16.9;;;;;;;-0.1;85;98930;;;;
2023/01/26 22:25:00;;;;;;;28.7;16.9;;;;;;;0.1;85.1;98940;;;;
2023/01/26 22:35:00;;;;;;;28.7;16.9;;;;;;;0;85.1;98930;;;;
2023/01/26 22:45:00;;;;;;;22.5;14.1;;;;;;;0;84.9;98920;;;;
2023/01/26 22:56:00;;;;;;;22.5;14.1;;;;;;;0.1;85;98920;;;;
2023/01/26 23:06:00;;;;;;;22.5;14.1;;;;;;;0;84.9;98920;;;;
2023/01/26 23:17:00;;;;;;;25.7;15;;;;;;;0.1;84.8;98910;;;;
2023/01/26 23:27:00;;;;;;;25.7;15;;;;;;;0.1;84.8;98910;;;;
2023/01/26 23:37:00;;;;;;;25.7;15;;;;;;;0;85.1;98920;;;;
2023/01/26 23:48:00;;;;;;;27;16.7;;;;;;;-0.1;85.7;98920;;;;
2023/01/26 23:58:00;;;;;;;27;16.7;;;;;;;-0.1;85.6;98920;;;;
